createdAt,value
2023-03-01T00:00:10.370Z,2.71
2023-03-01T00:01:10.395Z,2.74
2023-03-01T00:02:10.449Z,2.76
2023-03-01T00:03:10.380Z,2.73
2023-03-01T00:04:10.317Z,2.73
2023-03-01T00:05:10.334Z,2.70
2023-03-01T00:06:10.291Z,2.64
2023-03-01T00:07:10.299Z,2.58
2023-03-01T00:08:10.304Z,2.52
2023-03-01T00:09:10.237Z,2.56
2023-03-01T00:10:10.314Z,2.58
2023-03-01T00:11:10.299Z,2.58
2023-03-01T00:12:10.210Z,2.58
2023-03-01T00:13:10.199Z,2.64
2023-03-01T00:14:10.241Z,2.64
2023-03-01T00:15:10.174Z,2.61
2023-03-01T00:16:10.225Z,2.55
2023-03-01T00:17:10.243Z,2.53
2023-03-01T00:18:10.127Z,2.52
2023-03-01T00:19:10.137Z,2.51
2023-03-01T00:20:10.135Z,2.44
2023-03-01T00:21:10.077Z,2.41
2023-03-01T00:22:10.191Z,2.46
2023-03-01T00:23:10.131Z,2.46
2023-03-01T00:24:10.097Z,2.49
2023-03-01T00:25:10.075Z,2.53
2023-03-01T00:26:10.063Z,2.52
2023-03-01T00:27:10.009Z,2.56
2023-03-01T00:28:10.039Z,2.53
2023-03-01T00:29:10.051Z,2.55
2023-03-01T00:30:10.057Z,2.63
2023-03-01T00:31:10.018Z,2.52
2023-03-01T00:32:09.998Z,2.49
2023-03-01T00:33:09.958Z,2.49
2023-03-01T00:34:09.998Z,2.58
2023-03-01T00:35:09.909Z,2.53
2023-03-01T00:36:09.979Z,2.53
2023-03-01T00:37:09.946Z,2.53
2023-03-01T00:38:09.888Z,2.59
2023-03-01T00:39:09.897Z,2.66
2023-03-01T00:40:09.867Z,2.55
2023-03-01T00:41:09.828Z,2.51
2023-03-01T00:42:09.920Z,2.52
2023-03-01T00:43:09.836Z,2.48
2023-03-01T00:44:09.806Z,2.49
2023-03-01T00:45:09.802Z,2.51
2023-03-01T00:46:09.827Z,2.44
2023-03-01T00:47:09.831Z,2.46
2023-03-01T00:48:09.789Z,2.44
2023-03-01T00:49:09.758Z,2.41
2023-03-01T00:50:09.717Z,2.37
2023-03-01T00:51:09.714Z,2.38
2023-03-01T00:52:09.740Z,2.34
2023-03-01T00:53:09.708Z,2.40
2023-03-01T00:54:09.686Z,2.34
2023-03-01T00:55:10.716Z,2.38
2023-03-01T00:56:09.706Z,2.35
2023-03-01T00:57:09.638Z,2.30
2023-03-01T00:58:09.658Z,2.37
2023-03-01T00:59:09.627Z,2.31
2023-03-01T01:00:09.636Z,2.28
2023-03-01T01:01:09.780Z,2.27
2023-03-01T01:02:09.647Z,2.23
2023-03-01T01:03:09.569Z,2.20
2023-03-01T01:04:09.624Z,2.23
2023-03-01T01:05:09.525Z,2.28
2023-03-01T01:06:09.518Z,2.27
2023-03-01T01:07:09.597Z,2.28
2023-03-01T01:08:09.491Z,2.31
2023-03-01T01:09:09.497Z,2.33
2023-03-01T01:10:09.537Z,2.34
2023-03-01T01:11:09.443Z,2.35
2023-03-01T01:12:09.436Z,2.35
2023-03-01T01:13:09.433Z,2.37
2023-03-01T01:14:09.433Z,2.28
2023-03-01T01:15:09.397Z,2.28
2023-03-01T01:16:09.472Z,2.28
2023-03-01T01:17:09.378Z,2.28
2023-03-01T01:18:09.400Z,2.22
2023-03-01T01:19:09.374Z,2.19
2023-03-01T01:20:09.353Z,2.20
2023-03-01T01:21:09.353Z,2.12
2023-03-01T01:22:09.306Z,2.16
2023-03-01T01:23:09.319Z,2.15
2023-03-01T01:24:09.326Z,2.16
2023-03-01T01:25:09.307Z,2.15
2023-03-01T01:26:09.268Z,2.12
2023-03-01T01:27:09.244Z,2.13
2023-03-01T01:28:09.255Z,2.09
2023-03-01T01:29:09.260Z,2.08
2023-03-01T01:30:09.279Z,2.02
2023-03-01T01:31:09.256Z,2.06
2023-03-01T01:32:09.218Z,2.02
2023-03-01T01:33:09.180Z,1.97
2023-03-01T01:34:09.199Z,1.90
2023-03-01T01:35:09.157Z,1.91
2023-03-01T01:36:09.137Z,1.93
2023-03-01T01:37:09.169Z,1.91
2023-03-01T01:38:09.151Z,1.93
2023-03-01T01:39:09.117Z,1.85
2023-03-01T01:40:09.107Z,1.82
2023-03-01T01:41:09.083Z,1.85
2023-03-01T01:42:09.057Z,1.87
2023-03-01T01:43:09.067Z,1.89
2023-03-01T01:44:09.063Z,1.90
2023-03-01T01:45:09.026Z,1.85
2023-03-01T01:46:09.037Z,1.89
2023-03-01T01:47:09.035Z,1.83
2023-03-01T01:48:08.975Z,1.91
2023-03-01T01:49:08.991Z,1.97
2023-03-01T01:50:08.966Z,2.08
2023-03-01T01:51:08.935Z,2.08
2023-03-01T01:52:08.968Z,2.02
2023-03-01T01:53:09.049Z,2.15
2023-03-01T01:54:08.905Z,2.15
2023-03-01T01:55:08.932Z,2.10
2023-03-01T01:56:08.890Z,2.09
2023-03-01T01:57:08.925Z,2.02
2023-03-01T01:58:08.874Z,1.98
2023-03-01T01:59:08.891Z,1.97
2023-03-01T02:00:08.826Z,2.04
2023-03-01T02:01:08.900Z,2.02
2023-03-01T02:02:08.822Z,2.04
2023-03-01T02:03:09.005Z,2.08
2023-03-01T02:04:08.830Z,2.10
2023-03-01T02:05:08.752Z,2.13
2023-03-01T02:06:08.785Z,2.12
2023-03-01T02:07:08.762Z,2.10
2023-03-01T02:08:08.711Z,2.13
2023-03-01T02:09:08.706Z,2.10
2023-03-01T02:10:08.710Z,2.06
2023-03-01T02:11:08.680Z,2.10
2023-03-01T02:12:08.701Z,2.04
2023-03-01T02:13:08.735Z,1.99
2023-03-01T02:14:08.634Z,1.98
2023-03-01T02:15:08.640Z,1.83
2023-03-01T02:16:08.717Z,1.79
2023-03-01T02:17:08.621Z,1.75
2023-03-01T02:18:08.600Z,1.80
2023-03-01T02:19:08.641Z,1.82
2023-03-01T02:20:08.590Z,1.85
2023-03-01T02:21:08.579Z,1.85
2023-03-01T02:22:08.564Z,1.87
2023-03-01T02:23:08.554Z,1.80
2023-03-01T02:24:08.529Z,1.82
2023-03-01T02:25:08.620Z,1.91
2023-03-01T02:26:08.552Z,1.87
2023-03-01T02:27:08.479Z,1.80
2023-03-01T02:28:08.530Z,1.80
2023-03-01T02:29:08.483Z,1.76
2023-03-01T02:30:08.450Z,1.73
2023-03-01T02:31:08.542Z,1.80
2023-03-01T02:32:08.567Z,1.80
2023-03-01T02:33:08.391Z,1.83
2023-03-01T02:34:08.417Z,1.82
2023-03-01T02:35:08.381Z,1.82
2023-03-01T02:36:08.384Z,1.78
2023-03-01T02:37:08.350Z,1.83
2023-03-01T02:38:08.347Z,1.82
2023-03-01T02:39:08.388Z,1.80
2023-03-01T02:40:08.307Z,1.82
2023-03-01T02:41:08.319Z,1.78
2023-03-01T02:42:08.312Z,1.78
2023-03-01T02:43:08.287Z,1.82
2023-03-01T02:44:08.287Z,1.79
2023-03-01T02:45:08.289Z,1.79
2023-03-01T02:46:08.358Z,1.75
2023-03-01T02:47:08.284Z,1.80
2023-03-01T02:48:08.256Z,1.75
2023-03-01T02:49:08.194Z,1.78
2023-03-01T02:50:08.227Z,1.71
2023-03-01T02:51:08.247Z,1.65
2023-03-01T02:52:08.217Z,1.64
2023-03-01T02:53:08.157Z,1.61
2023-03-01T02:54:08.165Z,1.61
2023-03-01T02:55:08.196Z,1.62
2023-03-01T02:56:08.133Z,1.55
2023-03-01T02:57:08.089Z,1.55
2023-03-01T02:58:08.128Z,1.58
2023-03-01T02:59:08.084Z,1.65
2023-03-01T03:00:08.336Z,1.71
2023-03-01T03:01:08.125Z,1.68
2023-03-01T03:02:08.067Z,1.65
2023-03-01T03:03:08.101Z,1.68
2023-03-01T03:04:08.014Z,1.73
2023-03-01T03:05:08.080Z,1.73
2023-03-01T03:06:07.986Z,1.80
2023-03-01T03:07:07.969Z,1.75
2023-03-01T03:08:08.057Z,1.76
2023-03-01T03:09:07.954Z,1.82
2023-03-01T03:10:07.939Z,1.91
2023-03-01T03:11:08.008Z,1.89
2023-03-01T03:12:07.910Z,1.98
2023-03-01T03:13:07.903Z,1.89
2023-03-01T03:14:07.947Z,1.83
2023-03-01T03:15:07.856Z,1.87
2023-03-01T03:16:07.873Z,1.87
2023-03-01T03:17:07.837Z,1.89
2023-03-01T03:18:07.875Z,1.89
2023-03-01T03:19:07.827Z,1.90
2023-03-01T03:20:07.831Z,1.83
2023-03-01T03:21:07.845Z,1.83
2023-03-01T03:22:07.763Z,1.79
2023-03-01T03:23:07.780Z,1.79
2023-03-01T03:24:07.791Z,1.82
2023-03-01T03:25:07.729Z,1.85
2023-03-01T03:26:07.734Z,1.85
2023-03-01T03:27:07.772Z,1.83
2023-03-01T03:28:07.691Z,1.87
2023-03-01T03:29:07.687Z,1.90
2023-03-01T03:30:07.722Z,1.90
2023-03-01T03:31:07.749Z,1.91
2023-03-01T03:32:07.666Z,1.83
2023-03-01T03:33:07.661Z,1.78
2023-03-01T03:34:07.648Z,1.80
2023-03-01T03:35:07.598Z,1.80
2023-03-01T03:36:07.643Z,1.90
2023-03-01T03:37:07.647Z,1.89
2023-03-01T03:38:07.605Z,1.93
2023-03-01T03:39:07.548Z,1.82
2023-03-01T03:40:07.607Z,1.78
2023-03-01T03:41:07.566Z,1.82
2023-03-01T03:42:07.544Z,1.72
2023-03-01T03:43:07.563Z,1.69
2023-03-01T03:44:07.477Z,1.78
2023-03-01T03:45:07.466Z,1.78
2023-03-01T03:46:07.539Z,1.82
2023-03-01T03:47:07.435Z,1.80
2023-03-01T03:48:07.485Z,1.78
2023-03-01T03:49:07.418Z,1.68
2023-03-01T03:50:07.433Z,1.73
2023-03-01T03:51:07.454Z,1.79
2023-03-01T03:52:07.386Z,1.75
2023-03-01T03:53:07.405Z,1.65
2023-03-01T03:54:07.386Z,1.72
2023-03-01T03:55:07.365Z,1.61
2023-03-01T03:56:07.373Z,1.68
2023-03-01T03:57:07.360Z,1.75
2023-03-01T03:58:07.372Z,1.75
2023-03-01T03:59:07.406Z,1.68
2023-03-01T04:00:07.282Z,1.69
2023-03-01T04:01:07.317Z,1.61
2023-03-01T04:02:07.332Z,1.61
2023-03-01T04:03:07.268Z,1.57
2023-03-01T04:04:07.320Z,1.58
2023-03-01T04:05:07.253Z,1.50
2023-03-01T04:06:07.255Z,1.50
2023-03-01T04:07:07.278Z,1.52
2023-03-01T04:08:07.173Z,1.46
2023-03-01T04:09:07.170Z,1.46
2023-03-01T04:10:07.243Z,1.44
2023-03-01T04:11:07.160Z,1.42
2023-03-01T04:12:07.173Z,1.43
2023-03-01T04:13:07.149Z,1.39
2023-03-01T04:14:07.112Z,1.39
2023-03-01T04:15:07.094Z,1.40
2023-03-01T04:16:07.162Z,1.43
2023-03-01T04:17:07.072Z,1.51
2023-03-01T04:18:07.103Z,1.43
2023-03-01T04:19:07.056Z,1.43
2023-03-01T04:20:07.075Z,1.43
2023-03-01T04:21:07.013Z,1.50
2023-03-01T04:22:07.043Z,1.47
2023-03-01T04:23:06.991Z,1.52
2023-03-01T04:24:13.967Z,1.46
2023-03-01T04:25:06.971Z,1.39
2023-03-01T04:26:07.001Z,1.36
2023-03-01T04:27:06.961Z,1.32
2023-03-01T04:28:06.957Z,1.28
2023-03-01T04:29:06.909Z,1.22
2023-03-01T04:30:06.912Z,1.21
2023-03-01T04:31:07.857Z,1.22
2023-03-01T04:32:07.002Z,1.22
2023-03-01T04:33:06.873Z,1.24
2023-03-01T04:34:06.847Z,1.19
2023-03-01T04:35:06.838Z,1.12
2023-03-01T04:36:06.921Z,1.18
2023-03-01T04:37:06.946Z,1.16
2023-03-01T04:38:06.808Z,1.08
2023-03-01T04:39:06.898Z,1.08
2023-03-01T04:40:06.755Z,1.07
2023-03-01T04:41:06.783Z,1.12
2023-03-01T04:42:06.830Z,1.14
2023-03-01T04:43:06.768Z,1.14
2023-03-01T04:44:06.714Z,1.12
2023-03-01T04:45:06.802Z,1.12
2023-03-01T04:46:06.766Z,1.08
2023-03-01T04:47:06.687Z,1.16
2023-03-01T04:48:07.387Z,1.16
2023-03-01T04:49:06.644Z,1.24
2023-03-01T04:50:06.635Z,1.34
2023-03-01T04:51:06.677Z,1.24
2023-03-01T04:52:06.744Z,1.14
2023-03-01T04:53:06.761Z,1.14
2023-03-01T04:54:06.611Z,1.12
2023-03-01T04:55:06.607Z,1.15
2023-03-01T04:56:06.608Z,1.16
2023-03-01T04:57:06.576Z,1.24
2023-03-01T04:58:06.577Z,1.19
2023-03-01T04:59:06.631Z,1.22
2023-03-01T05:00:06.506Z,1.16
2023-03-01T05:01:06.522Z,1.10
2023-03-01T05:02:06.506Z,1.16
2023-03-01T05:03:06.609Z,1.14
2023-03-01T05:04:06.501Z,1.14
2023-03-01T05:05:06.483Z,1.10
2023-03-01T05:06:06.430Z,1.00
2023-03-01T05:07:06.441Z,1.06
2023-03-01T05:08:06.475Z,1.03
2023-03-01T05:09:06.447Z,1.03
2023-03-01T05:10:06.387Z,1.03
2023-03-01T05:11:06.421Z,1.06
2023-03-01T05:12:06.383Z,1.06
2023-03-01T05:13:06.341Z,0.97
2023-03-01T05:14:06.389Z,0.98
2023-03-01T05:15:06.379Z,1.06
2023-03-01T05:16:06.370Z,1.04
2023-03-01T05:17:06.365Z,1.01
2023-03-01T05:18:06.280Z,1.08
2023-03-01T05:19:06.289Z,1.12
2023-03-01T05:20:06.259Z,1.10
2023-03-01T05:21:06.275Z,1.07
2023-03-01T05:22:06.274Z,1.10
2023-03-01T05:23:06.455Z,1.18
2023-03-01T05:24:06.210Z,1.14
2023-03-01T05:25:06.199Z,1.07
2023-03-01T05:26:07.599Z,1.00
2023-03-01T05:27:06.236Z,1.00
2023-03-01T05:28:06.167Z,1.07
2023-03-01T05:29:06.160Z,1.10
2023-03-01T05:30:06.148Z,1.08
2023-03-01T05:31:06.172Z,1.16
2023-03-01T05:32:06.165Z,1.10
2023-03-01T05:33:06.106Z,1.06
2023-03-01T05:34:06.116Z,1.06
2023-03-01T05:35:06.085Z,1.03
2023-03-01T05:36:06.063Z,1.04
2023-03-01T05:37:06.029Z,0.98
2023-03-01T05:38:06.051Z,1.04
2023-03-01T05:39:06.057Z,0.98
2023-03-01T05:40:06.046Z,1.00
2023-03-01T05:41:06.138Z,1.04
2023-03-01T05:42:05.960Z,1.04
2023-03-01T05:43:06.029Z,0.97
2023-03-01T05:44:05.983Z,1.03
2023-03-01T05:45:05.929Z,1.03
2023-03-01T05:46:06.068Z,0.96
2023-03-01T05:47:05.961Z,0.94
2023-03-01T05:48:05.908Z,0.98
2023-03-01T05:49:05.940Z,0.97
2023-03-01T05:50:05.925Z,0.96
2023-03-01T05:51:05.845Z,0.96
2023-03-01T05:52:05.866Z,0.94
2023-03-01T05:53:05.879Z,0.96
2023-03-01T05:54:05.820Z,0.88
2023-03-01T05:55:05.816Z,0.85
2023-03-01T05:56:05.829Z,0.83
2023-03-01T05:57:05.773Z,0.86
2023-03-01T05:58:05.775Z,0.82
2023-03-01T05:59:05.804Z,0.82
2023-03-01T06:00:05.748Z,0.88
2023-03-01T06:01:05.757Z,0.86
2023-03-01T06:02:05.799Z,0.85
2023-03-01T06:03:05.697Z,0.82
2023-03-01T06:04:05.706Z,0.89
2023-03-01T06:05:05.907Z,0.89
2023-03-01T06:06:05.668Z,0.85
2023-03-01T06:07:05.702Z,0.83
2023-03-01T06:08:05.755Z,0.86
2023-03-01T06:09:05.624Z,0.90
2023-03-01T06:10:05.605Z,0.92
2023-03-01T06:11:05.649Z,0.94
2023-03-01T06:12:05.625Z,0.92
2023-03-01T06:13:05.605Z,1.00
2023-03-01T06:14:05.646Z,1.06
2023-03-01T06:15:05.599Z,0.97
2023-03-01T06:16:05.604Z,1.00
2023-03-01T06:17:05.562Z,1.03
2023-03-01T06:18:05.508Z,1.12
2023-03-01T06:19:05.494Z,1.06
2023-03-01T06:20:05.571Z,1.01
2023-03-01T06:21:05.587Z,0.96
2023-03-01T06:22:05.465Z,0.96
2023-03-01T06:23:05.488Z,1.03
2023-03-01T06:24:05.420Z,1.00
2023-03-01T06:25:05.432Z,0.96
2023-03-01T06:26:05.487Z,1.00
2023-03-01T06:27:05.391Z,1.03
2023-03-01T06:28:05.390Z,1.00
2023-03-01T06:29:05.435Z,0.98
2023-03-01T06:30:05.367Z,0.98
2023-03-01T06:31:05.395Z,1.03
2023-03-01T06:32:05.395Z,1.00
2023-03-01T06:33:05.348Z,1.01
2023-03-01T06:34:05.332Z,1.01
2023-03-01T06:35:05.288Z,1.00
2023-03-01T06:36:05.318Z,1.07
2023-03-01T06:37:05.281Z,1.03
2023-03-01T06:38:05.350Z,1.01
2023-03-01T06:39:05.246Z,1.08
2023-03-01T06:40:05.293Z,1.08
2023-03-01T06:41:05.246Z,1.06
2023-03-01T06:42:05.297Z,1.06
2023-03-01T06:43:05.207Z,1.10
2023-03-01T06:44:05.181Z,1.12
2023-03-01T06:45:05.255Z,1.19
2023-03-01T06:46:05.160Z,1.22
2023-03-01T06:47:05.138Z,1.26
2023-03-01T06:48:05.154Z,1.32
2023-03-01T06:49:05.098Z,1.36
2023-03-01T06:50:05.123Z,1.37
2023-03-01T06:51:05.139Z,1.43
2023-03-01T06:52:05.103Z,1.28
2023-03-01T06:53:05.070Z,1.29
2023-03-01T06:54:05.062Z,1.28
2023-03-01T06:55:05.057Z,1.28
2023-03-01T06:56:05.039Z,1.29
2023-03-01T06:57:05.066Z,1.36
2023-03-01T06:58:05.032Z,1.37
2023-03-01T06:59:05.048Z,1.37
2023-03-01T07:00:05.045Z,1.36
2023-03-01T07:01:06.480Z,1.36
2023-03-01T07:02:04.959Z,1.37
2023-03-01T07:03:05.008Z,1.34
2023-03-01T07:04:04.988Z,1.39
2023-03-01T07:05:04.905Z,1.43
2023-03-01T07:06:04.916Z,1.54
2023-03-01T07:07:04.962Z,1.42
2023-03-01T07:08:04.870Z,1.33
2023-03-01T07:09:04.905Z,1.34
2023-03-01T07:10:04.879Z,1.42
2023-03-01T07:11:04.812Z,1.52
2023-03-01T07:12:04.913Z,1.44
2023-03-01T07:13:04.865Z,1.43
2023-03-01T07:14:04.881Z,1.46
2023-03-01T07:15:04.771Z,1.52
2023-03-01T07:16:04.901Z,1.58
2023-03-01T07:17:04.785Z,1.65
2023-03-01T07:18:04.737Z,1.69
2023-03-01T07:19:04.710Z,1.64
2023-03-01T07:20:04.747Z,1.50
2023-03-01T07:21:04.702Z,1.57
2023-03-01T07:22:04.817Z,1.60
2023-03-01T07:23:04.751Z,1.62
2023-03-01T07:24:04.700Z,1.58
2023-03-01T07:25:04.718Z,1.46
2023-03-01T07:26:04.809Z,1.39
2023-03-01T07:27:04.609Z,1.39
2023-03-01T07:28:04.664Z,1.39
2023-03-01T07:29:04.600Z,1.44
2023-03-01T07:30:04.618Z,1.47
2023-03-01T07:31:04.604Z,1.43
2023-03-01T07:32:04.674Z,1.43
2023-03-01T07:33:04.729Z,1.42
2023-03-01T07:34:04.595Z,1.43
2023-03-01T07:35:04.518Z,1.50
2023-03-01T07:36:04.567Z,1.50
2023-03-01T07:37:04.508Z,1.51
2023-03-01T07:38:04.498Z,1.44
2023-03-01T07:39:04.486Z,1.50
2023-03-01T07:40:04.500Z,1.54
2023-03-01T07:41:04.448Z,1.73
2023-03-01T07:42:04.521Z,1.85
2023-03-01T07:43:04.493Z,1.89
2023-03-01T07:44:04.411Z,1.80
2023-03-01T07:45:04.378Z,1.83
2023-03-01T07:46:04.555Z,1.90
2023-03-01T07:47:04.384Z,1.78
2023-03-01T07:48:04.358Z,1.69
2023-03-01T07:49:04.359Z,1.75
2023-03-01T07:50:04.357Z,1.85
2023-03-01T07:51:04.314Z,1.69
2023-03-01T07:52:04.347Z,1.76
2023-03-01T07:53:04.342Z,1.85
2023-03-01T07:54:04.280Z,1.90
2023-03-01T07:55:04.267Z,1.90
2023-03-01T07:56:04.244Z,1.85
2023-03-01T07:57:04.276Z,1.93
2023-03-01T07:58:04.236Z,1.97
2023-03-01T07:59:04.203Z,1.82
2023-03-01T08:00:04.235Z,1.87
2023-03-01T08:01:04.194Z,1.82
2023-03-01T08:02:04.257Z,1.97
2023-03-01T08:03:04.201Z,1.94
2023-03-01T08:04:04.166Z,2.01
2023-03-01T08:05:04.154Z,2.02
2023-03-01T08:06:04.158Z,2.13
2023-03-01T08:07:04.113Z,2.10
2023-03-01T08:08:04.104Z,2.09
2023-03-01T08:09:04.131Z,2.16
2023-03-01T08:10:04.091Z,2.19
2023-03-01T08:11:04.040Z,2.20
2023-03-01T08:12:04.095Z,2.20
2023-03-01T08:13:04.028Z,2.27
2023-03-01T08:14:04.030Z,2.26
2023-03-01T08:15:03.994Z,2.19
2023-03-01T08:16:04.142Z,2.23
2023-03-01T08:17:04.079Z,2.31
2023-03-01T08:18:03.958Z,2.45
2023-03-01T08:19:04.028Z,2.37
2023-03-01T08:20:03.998Z,2.48
2023-03-01T08:21:03.950Z,2.48
2023-03-01T08:22:03.958Z,2.40
2023-03-01T08:23:03.900Z,2.48
2023-03-01T08:24:03.920Z,2.44
2023-03-01T08:25:03.883Z,2.49
2023-03-01T08:26:03.911Z,2.37
2023-03-01T08:27:03.849Z,2.34
2023-03-01T08:28:03.869Z,2.38
2023-03-01T08:29:03.844Z,2.41
2023-03-01T08:30:03.844Z,2.52
2023-03-01T08:31:03.846Z,2.76
2023-03-01T08:32:03.967Z,2.64
2023-03-01T08:33:03.774Z,2.69
2023-03-01T08:34:03.766Z,2.55
2023-03-01T08:35:03.841Z,2.48
2023-03-01T08:36:03.764Z,2.63
2023-03-01T08:37:03.724Z,2.63
2023-03-01T08:38:03.715Z,2.61
2023-03-01T08:39:03.693Z,2.70
2023-03-01T08:40:03.696Z,2.76
2023-03-01T08:41:03.733Z,2.77
2023-03-01T08:42:03.635Z,2.82
2023-03-01T08:43:03.676Z,2.79
2023-03-01T08:44:03.645Z,2.87
2023-03-01T08:45:03.633Z,3.05
2023-03-01T08:46:03.751Z,2.92
2023-03-01T08:47:03.576Z,3.05
2023-03-01T08:48:03.623Z,2.98
2023-03-01T08:49:03.570Z,3.03
2023-03-01T08:50:03.556Z,3.09
2023-03-01T08:51:03.550Z,3.24
2023-03-01T08:52:03.789Z,3.16
2023-03-01T08:53:03.493Z,3.06
2023-03-01T08:54:03.492Z,3.09
2023-03-01T08:55:03.535Z,3.13
2023-03-01T08:56:03.482Z,3.12
2023-03-01T08:57:03.450Z,3.23
2023-03-01T08:58:03.529Z,3.42
2023-03-01T08:59:03.429Z,3.33
2023-03-01T09:00:03.426Z,3.42
2023-03-01T09:01:03.423Z,3.30
2023-03-01T09:02:03.402Z,3.28
2023-03-01T09:03:03.403Z,3.28
2023-03-01T09:04:03.384Z,3.28
2023-03-01T09:05:03.361Z,3.44
2023-03-01T09:06:03.379Z,3.68
2023-03-01T09:07:03.315Z,3.71
2023-03-01T09:08:03.339Z,3.72
2023-03-01T09:09:03.325Z,3.54
2023-03-01T09:10:03.345Z,3.54
2023-03-01T09:11:03.286Z,3.67
2023-03-01T09:12:03.253Z,3.68
2023-03-01T09:13:03.292Z,3.72
2023-03-01T09:14:03.225Z,3.71
2023-03-01T09:15:03.253Z,3.75
2023-03-01T09:16:03.224Z,3.64
2023-03-01T09:17:03.200Z,3.79
2023-03-01T09:18:03.202Z,3.76
2023-03-01T09:19:03.185Z,3.70
2023-03-01T09:20:03.189Z,3.75
2023-03-01T09:21:03.197Z,3.86
2023-03-01T09:22:03.152Z,3.78
2023-03-01T09:23:03.105Z,3.80
2023-03-01T09:24:03.136Z,3.82
2023-03-01T09:25:03.179Z,3.94
2023-03-01T09:26:03.077Z,3.92
2023-03-01T09:27:03.210Z,3.85
2023-03-01T09:28:03.231Z,3.86
2023-03-01T09:29:03.036Z,3.85
2023-03-01T09:30:03.073Z,3.89
2023-03-01T09:31:03.038Z,4.04
2023-03-01T09:32:03.171Z,4.32
2023-03-01T09:33:03.083Z,4.36
2023-03-01T09:34:03.063Z,4.21
2023-03-01T09:35:02.977Z,4.07
2023-03-01T09:36:03.035Z,4.08
2023-03-01T09:37:03.074Z,4.25
2023-03-01T09:38:02.996Z,4.47
2023-03-01T09:39:02.973Z,4.58
2023-03-01T09:40:03.016Z,4.54
2023-03-01T09:41:02.880Z,4.39
2023-03-01T09:42:02.912Z,4.40
2023-03-01T09:43:02.860Z,4.44
2023-03-01T09:44:02.850Z,4.50
2023-03-01T09:45:02.814Z,4.51
2023-03-01T09:46:02.931Z,4.67
2023-03-01T09:47:02.832Z,4.83
2023-03-01T09:48:02.810Z,4.62
2023-03-01T09:49:02.834Z,4.65
2023-03-01T09:50:02.823Z,4.46
2023-03-01T09:51:02.748Z,4.39
2023-03-01T09:52:02.828Z,4.51
2023-03-01T09:53:02.732Z,4.43
2023-03-01T09:54:02.743Z,4.40
2023-03-01T09:55:02.691Z,4.51
2023-03-01T09:56:02.734Z,4.61
2023-03-01T09:57:02.735Z,4.77
2023-03-01T09:58:02.674Z,5.01
2023-03-01T09:59:02.691Z,4.98
2023-03-01T10:00:02.654Z,4.83
2023-03-01T10:01:02.621Z,4.72
2023-03-01T10:02:02.619Z,4.73
2023-03-01T10:03:02.594Z,4.79
2023-03-01T10:04:02.669Z,4.98
2023-03-01T10:05:02.663Z,5.07
2023-03-01T10:06:02.568Z,5.04
2023-03-01T10:07:02.571Z,5.01
2023-03-01T10:08:02.550Z,5.02
2023-03-01T10:09:02.521Z,5.05
2023-03-01T10:10:02.543Z,5.09
2023-03-01T10:11:02.513Z,5.12
2023-03-01T10:12:02.491Z,5.16
2023-03-01T10:13:02.483Z,5.12
2023-03-01T10:14:02.564Z,5.23
2023-03-01T10:15:02.473Z,5.37
2023-03-01T10:16:02.496Z,5.53
2023-03-01T10:17:02.424Z,5.66
2023-03-01T10:18:02.481Z,5.60
2023-03-01T10:19:02.466Z,5.63
2023-03-01T10:20:02.383Z,5.63
2023-03-01T10:21:02.385Z,5.50
2023-03-01T10:22:02.371Z,5.45
2023-03-01T10:23:02.378Z,5.49
2023-03-01T10:24:02.343Z,5.56
2023-03-01T10:25:02.382Z,5.70
2023-03-01T10:26:02.351Z,5.96
2023-03-01T10:27:02.289Z,6.04
2023-03-01T10:28:02.309Z,6.13
2023-03-01T10:29:02.292Z,6.07
2023-03-01T10:30:02.261Z,5.93
2023-03-01T10:31:02.289Z,5.91
2023-03-01T10:32:02.358Z,6.03
2023-03-01T10:33:03.101Z,5.83
2023-03-01T10:34:02.211Z,5.67
2023-03-01T10:35:02.198Z,5.66
2023-03-01T10:36:02.272Z,5.66
2023-03-01T10:37:02.195Z,5.91
2023-03-01T10:38:02.160Z,6.07
2023-03-01T10:39:02.189Z,6.03
2023-03-01T10:40:02.204Z,5.77
2023-03-01T10:41:02.101Z,5.70
2023-03-01T10:42:02.191Z,5.82
2023-03-01T10:43:02.248Z,6.01
2023-03-01T10:44:02.129Z,6.04
2023-03-01T10:45:02.042Z,6.09
2023-03-01T10:46:02.110Z,6.01
2023-03-01T10:47:02.038Z,6.06
2023-03-01T10:48:02.016Z,6.22
2023-03-01T10:49:02.059Z,6.35
2023-03-01T10:50:01.991Z,6.36
2023-03-01T10:51:01.986Z,6.44
2023-03-01T10:52:01.968Z,6.58
2023-03-01T10:53:01.982Z,6.72
2023-03-01T10:54:01.951Z,6.80
2023-03-01T10:55:01.959Z,6.83
2023-03-01T10:56:01.904Z,6.71
2023-03-01T10:57:01.904Z,6.71
2023-03-01T10:58:08.864Z,6.79
2023-03-01T10:59:01.862Z,6.72
2023-03-01T11:00:01.918Z,6.63
2023-03-01T11:01:01.849Z,6.63
2023-03-01T11:02:05.132Z,6.62
2023-03-01T11:03:02.835Z,6.72
2023-03-01T11:04:01.863Z,6.68
2023-03-01T11:05:01.992Z,6.62
2023-03-01T11:06:01.769Z,6.72
2023-03-01T11:07:01.774Z,6.71
2023-03-01T11:08:01.801Z,6.68
2023-03-01T11:09:01.730Z,6.71
2023-03-01T11:10:01.758Z,6.72
2023-03-01T11:11:01.821Z,6.77
2023-03-01T11:12:01.705Z,6.80
2023-03-01T11:13:01.734Z,6.89
2023-03-01T11:14:01.716Z,6.90
2023-03-01T11:15:01.674Z,6.66
2023-03-01T11:16:01.766Z,6.51
2023-03-01T11:17:01.709Z,6.50
2023-03-01T11:18:13.843Z,6.48
2023-03-01T11:19:02.702Z,6.51
2023-03-01T11:20:02.861Z,6.66
2023-03-01T11:21:01.588Z,6.77
2023-03-01T11:22:01.620Z,6.90
2023-03-01T11:23:01.586Z,6.77
2023-03-01T11:24:01.530Z,6.73
2023-03-01T11:25:09.879Z,6.80
2023-03-01T11:26:02.577Z,6.89
2023-03-01T11:27:01.490Z,6.98
2023-03-01T11:28:01.522Z,7.08
2023-03-01T11:29:01.498Z,6.99
2023-03-01T11:30:01.463Z,7.07
2023-03-01T11:31:08.583Z,6.86
2023-03-01T11:32:02.588Z,6.73
2023-03-01T11:33:01.563Z,6.83
2023-03-01T11:34:01.414Z,6.98
2023-03-01T11:35:01.410Z,7.01
2023-03-01T11:36:01.447Z,7.05
2023-03-01T11:37:01.395Z,7.12
2023-03-01T11:38:01.327Z,6.91
2023-03-01T11:39:01.412Z,6.84
2023-03-01T11:40:01.340Z,7.04
2023-03-01T11:41:01.365Z,7.16
2023-03-01T11:42:06.342Z,7.22
2023-03-01T11:43:02.387Z,7.34
2023-03-01T11:44:01.294Z,7.50
2023-03-01T11:45:01.326Z,7.35
2023-03-01T11:46:01.237Z,7.24
2023-03-01T11:47:01.439Z,7.26
2023-03-01T11:48:01.223Z,7.26
2023-03-01T11:49:01.248Z,7.24
2023-03-01T11:50:01.172Z,7.27
2023-03-01T11:51:01.258Z,7.31
2023-03-01T11:52:01.223Z,7.24
2023-03-01T11:53:01.148Z,7.20
2023-03-01T11:54:01.167Z,7.26
2023-03-01T11:55:01.804Z,7.29
2023-03-01T11:56:01.124Z,7.31
2023-03-01T11:57:01.193Z,7.26
2023-03-01T11:58:01.087Z,7.23
2023-03-01T11:59:01.093Z,7.07
2023-03-01T12:00:01.094Z,7.08
2023-03-01T12:01:01.097Z,7.19
2023-03-01T12:02:01.078Z,7.34
2023-03-01T12:03:01.033Z,7.50
2023-03-01T12:04:01.084Z,7.47
2023-03-01T12:05:00.983Z,7.27
2023-03-01T12:06:00.988Z,7.32
2023-03-01T12:07:01.090Z,7.20
2023-03-01T12:08:01.064Z,7.24
2023-03-01T12:09:00.934Z,7.37
2023-03-01T12:10:00.946Z,7.55
2023-03-01T12:11:00.919Z,7.71
2023-03-01T12:12:00.899Z,7.82
2023-03-01T12:13:00.971Z,7.81
2023-03-01T12:14:00.864Z,7.56
2023-03-01T12:15:00.902Z,7.62
2023-03-01T12:16:00.979Z,7.66
2023-03-01T12:17:00.889Z,7.60
2023-03-01T12:18:00.931Z,7.59
2023-03-01T12:19:00.845Z,7.74
2023-03-01T12:20:00.852Z,7.59
2023-03-01T12:21:00.846Z,7.45
2023-03-01T12:22:00.815Z,7.56
2023-03-01T12:23:14.757Z,7.53
2023-03-01T12:24:01.790Z,7.62
2023-03-01T12:25:00.783Z,7.50
2023-03-01T12:26:00.805Z,7.72
2023-03-01T12:27:00.752Z,7.79
2023-03-01T12:28:00.730Z,7.78
2023-03-01T12:29:00.685Z,7.85
2023-03-01T12:30:00.689Z,7.85
2023-03-01T12:31:00.642Z,8.03
2023-03-01T12:32:00.789Z,8.18
2023-03-01T12:33:00.698Z,8.14
2023-03-01T12:34:00.605Z,8.12
2023-03-01T12:35:00.636Z,8.10
2023-03-01T12:36:00.717Z,8.11
2023-03-01T12:37:00.622Z,8.07
2023-03-01T12:38:00.630Z,7.93
2023-03-01T12:39:00.532Z,7.84
2023-03-01T12:40:00.547Z,7.81
2023-03-01T12:41:00.551Z,7.89
2023-03-01T12:42:00.504Z,8.08
2023-03-01T12:43:00.523Z,8.18
2023-03-01T12:44:00.587Z,8.12
2023-03-01T12:45:00.470Z,7.90
2023-03-01T12:46:00.512Z,7.81
2023-03-01T12:47:00.550Z,7.77
2023-03-01T12:48:00.460Z,7.85
2023-03-01T12:49:00.411Z,7.97
2023-03-01T12:50:00.487Z,7.90
2023-03-01T12:51:00.386Z,7.77
2023-03-01T12:52:00.372Z,7.82
2023-03-01T12:53:00.575Z,8.04
2023-03-01T12:54:00.421Z,8.25
2023-03-01T12:55:00.334Z,8.32
2023-03-01T12:56:00.423Z,8.30
2023-03-01T12:57:00.341Z,8.40
2023-03-01T12:58:00.314Z,8.37
2023-03-01T12:59:00.370Z,8.36
2023-03-01T13:00:00.279Z,8.36
2023-03-01T13:01:00.254Z,8.14
2023-03-01T13:02:00.269Z,8.10
2023-03-01T13:03:00.247Z,8.14
2023-03-01T13:04:00.342Z,8.17
2023-03-01T13:05:00.226Z,8.35
2023-03-01T13:06:00.231Z,8.25
2023-03-01T13:07:00.230Z,8.20
2023-03-01T13:08:00.169Z,8.29
2023-03-01T13:09:00.166Z,8.40
2023-03-01T13:10:00.137Z,8.37
2023-03-01T13:11:00.157Z,8.37
2023-03-01T13:12:01.706Z,8.42
2023-03-01T13:13:00.270Z,8.36
2023-03-01T13:14:00.144Z,8.15
2023-03-01T13:15:00.080Z,8.18
2023-03-01T13:16:00.071Z,8.21
2023-03-01T13:17:00.102Z,8.32
2023-03-01T13:18:00.164Z,8.36